Sm Seahawk — 3FLV3 — position and weather

sailwx.info

Track history (hours):
 
Tides and Currents Weather Stations Pressure Air Temp Water Temp Dewpoint Dewpoint Depression Visibility Wind Speed Wind Dir Waves Ship Positions

Sm Seahawk

Last reported at 2018-Apr-16 01:30 UTC. Time now 2018-Apr-24 06:58 UTC.
Position N 21°60' E 121°15'.
Warning: this ship's position is 8 days out of date.

Length 295 m; draft 9.9 m.

Type: Tanker. MMSI: 355658000.

Date/timePositionNaut miles runAvg speedWind from/ knotsBaromVisibWave heightAir tempDewpointWater temp
2018-Apr-16 01:30N 21°60' E 121°15'917.7
2018-Apr-16 00:59N 22°06' E 121°21'917.6
2018-Apr-16 00:30N 22°14' E 121°26'1017.9
2018-Apr-15 23:56N 22°22' E 121°32'3017.0
2018-Apr-15 22:11N 22°48' E 121°47'416.7
2018-Apr-15 21:59N 22°52' E 121°49'817.0
2018-Apr-15 21:30N 22°59' E 121°52'  
2018-Apr-12 16:42N 34°52' E 128°48'0 0.1
2018-Apr-12 16:30N 34°52' E 128°48'10 1.0
2018-Apr-12 06:36N 35°02' E 128°45'112.6
2018-Apr-12 06:29N 35°02' E 128°44'  
2018-Apr-09 15:43N 25°54' E 123°22'4519.8
2018-Apr-09 13:27N 25°13' E 123°01'920.5
2018-Apr-09 13:00N 25°05' E 122°57'1020.6
2018-Apr-09 12:30N 24°56' E 122°52'1020.4
2018-Apr-09 12:00N 24°46' E 122°47'1019.8
2018-Apr-09 11:31N 24°37' E 122°42'1019.2
2018-Apr-09 11:00N 24°29' E 122°37'1019.1
2018-Apr-09 10:30N 24°20' E 122°33'1019.2
2018-Apr-09 10:00N 24°11' E 122°29'1019.8
2018-Apr-09 09:30N 24°02' E 122°25'1020.0
2018-Apr-09 09:00N 23°53' E 122°20'1020.2
2018-Apr-09 08:30N 23°44' E 122°16'1020.5
2018-Apr-09 08:00N 23°35' E 122°11'1919.7
2018-Apr-09 07:03N 23°18' E 122°02'319.6
2018-Apr-09 06:54N 23°15' E 122°01'919.4
2018-Apr-09 06:26N 23°07' E 121°56'1419.3
2018-Apr-09 05:41N 22°54' E 121°50'5519.5
2018-Apr-09 02:53N 22°07' E 121°19'  
Track history (hours):
 
Tides and Currents Weather Stations Pressure Air Temp Water Temp Dewpoint Dewpoint Depression Visibility Wind Speed Wind Dir Waves Ship Positions

Sm Seahawk

Last reported at 2018-Apr-16 01:30 UTC. Time now 2018-Apr-24 06:58 UTC.
Position N 21°60' E 121°15'.
Warning: this ship's position is 8 days out of date.

Length 295 m; draft 9.9 m.

Type: Tanker. MMSI: 355658000.

Date/timePositionNaut miles runAvg speedWind from/ knotsBaromVisibWave heightAir tempDewpointWater temp
2018-Apr-16 01:30N 21°60' E 121°15'917.7
2018-Apr-16 00:59N 22°06' E 121°21'917.6
2018-Apr-16 00:30N 22°14' E 121°26'1017.9
2018-Apr-15 23:56N 22°22' E 121°32'3017.0
2018-Apr-15 22:11N 22°48' E 121°47'416.7
2018-Apr-15 21:59N 22°52' E 121°49'817.0
2018-Apr-15 21:30N 22°59' E 121°52'  
2018-Apr-12 16:42N 34°52' E 128°48'0 0.1
2018-Apr-12 16:30N 34°52' E 128°48'10 1.0
2018-Apr-12 06:36N 35°02' E 128°45'112.6
2018-Apr-12 06:29N 35°02' E 128°44'  
2018-Apr-09 15:43N 25°54' E 123°22'4519.8
2018-Apr-09 13:27N 25°13' E 123°01'920.5
2018-Apr-09 13:00N 25°05' E 122°57'1020.6
2018-Apr-09 12:30N 24°56' E 122°52'1020.4
2018-Apr-09 12:00N 24°46' E 122°47'1019.8
2018-Apr-09 11:31N 24°37' E 122°42'1019.2
2018-Apr-09 11:00N 24°29' E 122°37'1019.1
2018-Apr-09 10:30N 24°20' E 122°33'1019.2
2018-Apr-09 10:00N 24°11' E 122°29'1019.8
2018-Apr-09 09:30N 24°02' E 122°25'1020.0
2018-Apr-09 09:00N 23°53' E 122°20'1020.2
2018-Apr-09 08:30N 23°44' E 122°16'1020.5
2018-Apr-09 08:00N 23°35' E 122°11'1919.7
2018-Apr-09 07:03N 23°18' E 122°02'319.6
2018-Apr-09 06:54N 23°15' E 122°01'919.4
2018-Apr-09 06:26N 23°07' E 121°56'1419.3
2018-Apr-09 05:41N 22°54' E 121°50'5519.5
2018-Apr-09 02:53N 22°07' E 121°19'  

Dump ship's entire track history